AQQ10 IFIS: Internet Flight Information System
logo dgac
Lunes 20 de Septiembre del 2021
Buscar por aerodromo o helipuerto
Ingrese nombre de aeródromo, localidad o designador OACI:
METAR del 20-09-2021 a las 11:00 UTC
Para mayor información visite www.meteochile.cl
METAR SCSE 201100Z 11005KT CAVOK 08/06 Q1017
Viento: dirección 110 grados, velocidad 5 nudos
Visibilidad: 10 km o más,
    sin nubes bajo los 5.000 pies o bajo del MSA (Mínimo de Seguridad del Aeródromo),
    sin cumulonimbus, y sin fenómenos de tiempo significativo en el aeródromo o alrededores
Temperatura: 8 °C
Rocío: 6 °C
Humedad_relativa: 87%
Presión: 1017 hPa
METAR del 20-09-2021 a las 10:00 UTC
Para mayor información visite www.meteochile.cl
METAR SCSE 201000Z 10008KT CAVOK 08/06 Q1017
Viento: dirección 100 grados, velocidad 8 nudos
Visibilidad: 10 km o más,
    sin nubes bajo los 5.000 pies o bajo del MSA (Mínimo de Seguridad del Aeródromo),
    sin cumulonimbus, y sin fenómenos de tiempo significativo en el aeródromo o alrededores
Temperatura: 8 °C
Rocío: 6 °C
Humedad_relativa: 87%
Presión: 1017 hPa
METAR del 20-09-2021 a las 09:00 UTC
Para mayor información visite www.meteochile.cl
METAR SCSE 200900Z AUTO 11005KT CAVOK 07/06 Q1017
Viento: dirección 110 grados, velocidad 5 nudos
Visibilidad: 10 km o más,
    sin nubes bajo los 5.000 pies o bajo del MSA (Mínimo de Seguridad del Aeródromo),
    sin cumulonimbus, y sin fenómenos de tiempo significativo en el aeródromo o alrededores
Temperatura: 7 °C
Rocío: 6 °C
Humedad_relativa: 93%
Presión: 1017 hPa
METAR del 20-09-2021 a las 08:00 UTC
Para mayor información visite www.meteochile.cl
METAR SCSE 200800Z AUTO 09005KT CAVOK 08/06 Q1017
Viento: dirección 090 grados, velocidad 5 nudos
Visibilidad: 10 km o más,
    sin nubes bajo los 5.000 pies o bajo del MSA (Mínimo de Seguridad del Aeródromo),
    sin cumulonimbus, y sin fenómenos de tiempo significativo en el aeródromo o alrededores
Temperatura: 8 °C
Rocío: 6 °C
Humedad_relativa: 87%
Presión: 1017 hPa
METAR del 20-09-2021 a las 07:00 UTC
Para mayor información visite www.meteochile.cl
METAR SCSE 200700Z AUTO 08005KT CAVOK 08/07 Q1018
Viento: dirección 080 grados, velocidad 5 nudos
Visibilidad: 10 km o más,
    sin nubes bajo los 5.000 pies o bajo del MSA (Mínimo de Seguridad del Aeródromo),
    sin cumulonimbus, y sin fenómenos de tiempo significativo en el aeródromo o alrededores
Temperatura: 8 °C
Rocío: 7 °C
Humedad_relativa: 93%
Presión: 1018 hPa
METAR del 20-09-2021 a las 06:00 UTC
Para mayor información visite www.meteochile.cl
METAR SCSE 200600Z AUTO 10008KT CAVOK 09/07 Q1018
Viento: dirección 100 grados, velocidad 8 nudos
Visibilidad: 10 km o más,
    sin nubes bajo los 5.000 pies o bajo del MSA (Mínimo de Seguridad del Aeródromo),
    sin cumulonimbus, y sin fenómenos de tiempo significativo en el aeródromo o alrededores
Temperatura: 9 °C
Rocío: 7 °C
Humedad_relativa: 87%
Presión: 1018 hPa
METAR del 20-09-2021 a las 05:00 UTC
Para mayor información visite www.meteochile.cl
METAR SCSE 200500Z AUTO 12003KT CAVOK 08/06 Q1019
Viento: dirección 120 grados, velocidad 3 nudos
Visibilidad: 10 km o más,
    sin nubes bajo los 5.000 pies o bajo del MSA (Mínimo de Seguridad del Aeródromo),
    sin cumulonimbus, y sin fenómenos de tiempo significativo en el aeródromo o alrededores
Temperatura: 8 °C
Rocío: 6 °C
Humedad_relativa: 87%
Presión: 1019 hPa
METAR del 20-09-2021 a las 04:00 UTC
Para mayor información visite www.meteochile.cl
METAR SCSE 200400Z AUTO 09006KT CAVOK 10/07 Q1019
Viento: dirección 090 grados, velocidad 6 nudos
Visibilidad: 10 km o más,
    sin nubes bajo los 5.000 pies o bajo del MSA (Mínimo de Seguridad del Aeródromo),
    sin cumulonimbus, y sin fenómenos de tiempo significativo en el aeródromo o alrededores
Temperatura: 10 °C
Rocío: 7 °C
Humedad_relativa: 82%
Presión: 1019 hPa
METAR del 20-09-2021 a las 03:00 UTC
Para mayor información visite www.meteochile.cl
METAR SCSE 200300Z AUTO 10006KT CAVOK 10/08 Q1020
Viento: dirección 100 grados, velocidad 6 nudos
Visibilidad: 10 km o más,
    sin nubes bajo los 5.000 pies o bajo del MSA (Mínimo de Seguridad del Aeródromo),
    sin cumulonimbus, y sin fenómenos de tiempo significativo en el aeródromo o alrededores
Temperatura: 10 °C
Rocío: 8 °C
Humedad_relativa: 87%
Presión: 1020 hPa
METAR del 20-09-2021 a las 02:00 UTC
Para mayor información visite www.meteochile.cl
METAR SCSE 200200Z AUTO 16002KT CAVOK 11/09 Q1020
Viento: dirección 160 grados, velocidad 2 nudos
Visibilidad: 10 km o más,
    sin nubes bajo los 5.000 pies o bajo del MSA (Mínimo de Seguridad del Aeródromo),
    sin cumulonimbus, y sin fenómenos de tiempo significativo en el aeródromo o alrededores
Temperatura: 11 °C
Rocío: 9 °C
Humedad_relativa: 87%
Presión: 1020 hPa